sensor_id;sensor_type;location;lat;lon;timestamp;pressure;altitude;pressure_sealevel;temperature;humidity
62237;BME280;69163;48.778;2.308;2023-04-23T00:01:08;100074.05;;;17.41;37.43
62237;BME280;69163;48.778;2.308;2023-04-23T00:03:34;100072.77;;;17.65;37.39
62237;BME280;69163;48.778;2.308;2023-04-23T00:05:58;100068.22;;;17.68;37.29
62237;BME280;69163;48.778;2.308;2023-04-23T00:08:24;100068.95;;;18.06;37.11
62237;BME280;69163;48.778;2.308;2023-04-23T00:10:49;100071.77;;;18.09;37.00
62237;BME280;69163;48.778;2.308;2023-04-23T00:13:14;100071.10;;;17.76;37.05
62237;BME280;69163;48.778;2.308;2023-04-23T00:15:39;100076.54;;;17.85;36.91
62237;BME280;69163;48.778;2.308;2023-04-23T00:18:04;100079.20;;;17.47;37.01
62237;BME280;69163;48.778;2.308;2023-04-23T00:20:30;100075.04;;;17.51;36.89
62237;BME280;69163;48.778;2.308;2023-04-23T00:22:55;100074.53;;;17.59;36.79
62237;BME280;69163;48.778;2.308;2023-04-23T00:25:20;100070.80;;;17.55;36.78
62237;BME280;69163;48.778;2.308;2023-04-23T00:27:45;100066.63;;;17.62;36.66
62237;BME280;69163;48.778;2.308;2023-04-23T00:30:11;100066.70;;;17.84;36.62
62237;BME280;69163;48.778;2.308;2023-04-23T00:32:36;100067.87;;;17.59;36.58
62237;BME280;69163;48.778;2.308;2023-04-23T00:35:02;100070.45;;;17.62;36.53
62237;BME280;69163;48.778;2.308;2023-04-23T00:37:27;100073.84;;;18.04;36.58
62237;BME280;69163;48.778;2.308;2023-04-23T00:39:52;100073.31;;;17.78;36.54
62237;BME280;69163;48.778;2.308;2023-04-23T00:42:17;100074.53;;;17.76;36.54
62237;BME280;69163;48.778;2.308;2023-04-23T00:44:42;100074.83;;;17.82;36.40
62237;BME280;69163;48.778;2.308;2023-04-23T00:47:07;100074.72;;;17.66;36.27
62237;BME280;69163;48.778;2.308;2023-04-23T00:49:33;100071.64;;;17.70;36.15
62237;BME280;69163;48.778;2.308;2023-04-23T00:51:58;100068.56;;;17.62;36.17
62237;BME280;69163;48.778;2.308;2023-04-23T00:54:23;100064.06;;;17.66;36.14
62237;BME280;69163;48.778;2.308;2023-04-23T00:56:49;100058.18;;;17.62;36.12
62237;BME280;69163;48.778;2.308;2023-04-23T00:59:14;100058.36;;;17.57;36.12
62237;BME280;69163;48.778;2.308;2023-04-23T01:01:39;100053.66;;;17.57;36.11
62237;BME280;69163;48.778;2.308;2023-04-23T01:04:04;100050.05;;;17.92;35.98
62237;BME280;69163;48.778;2.308;2023-04-23T01:06:29;100045.87;;;18.19;35.87
62237;BME280;69163;48.778;2.308;2023-04-23T01:08:55;100045.62;;;17.89;35.88
62237;BME280;69163;48.778;2.308;2023-04-23T01:13:45;100047.40;;;17.79;35.70
62237;BME280;69163;48.778;2.308;2023-04-23T01:16:11;100042.42;;;17.68;35.79
62237;BME280;69163;48.778;2.308;2023-04-23T01:18:36;100039.70;;;18.14;35.75
62237;BME280;69163;48.778;2.308;2023-04-23T01:21:02;100034.93;;;17.76;35.89
62237;BME280;69163;48.778;2.308;2023-04-23T01:23:26;100036.29;;;18.09;35.78
62237;BME280;69163;48.778;2.308;2023-04-23T01:25:51;100033.99;;;17.49;35.84
62237;BME280;69163;48.778;2.308;2023-04-23T01:28:17;100030.36;;;17.67;35.66
62237;BME280;69163;48.778;2.308;2023-04-23T01:30:42;100027.59;;;17.83;35.50
62237;BME280;69163;48.778;2.308;2023-04-23T01:33:07;100028.21;;;17.81;35.46
62237;BME280;69163;48.778;2.308;2023-04-23T01:35:32;100028.68;;;18.14;35.55
62237;BME280;69163;48.778;2.308;2023-04-23T01:37:59;100031.71;;;18.05;35.67
62237;BME280;69163;48.778;2.308;2023-04-23T01:40:23;100020.73;;;18.22;35.45
62237;BME280;69163;48.778;2.308;2023-04-23T01:42:48;100020.86;;;18.10;35.52
62237;BME280;69163;48.778;2.308;2023-04-23T01:45:13;100018.48;;;17.58;35.59
62237;BME280;69163;48.778;2.308;2023-04-23T01:47:40;100015.27;;;17.55;35.56
62237;BME280;69163;48.778;2.308;2023-04-23T01:50:04;100009.41;;;17.51;35.60
62237;BME280;69163;48.778;2.308;2023-04-23T01:52:29;100008.33;;;17.73;35.60
62237;BME280;69163;48.778;2.308;2023-04-23T01:54:54;100001.13;;;17.80;35.50
62237;BME280;69163;48.778;2.308;2023-04-23T01:57:20;99998.61;;;18.01;35.52
62237;BME280;69163;48.778;2.308;2023-04-23T01:59:45;99997.82;;;17.32;35.69
62237;BME280;69163;48.778;2.308;2023-04-23T02:02:10;99997.64;;;17.56;35.62
62237;BME280;69163;48.778;2.308;2023-04-23T02:04:36;99990.51;;;17.80;35.64
62237;BME280;69163;48.778;2.308;2023-04-23T02:07:00;99993.27;;;17.86;35.58
62237;BME280;69163;48.778;2.308;2023-04-23T02:09:25;99996.32;;;17.87;35.53
62237;BME280;69163;48.778;2.308;2023-04-23T02:11:50;99999.90;;;17.71;35.43
62237;BME280;69163;48.778;2.308;2023-04-23T02:14:16;100000.25;;;17.33;35.52
62237;BME280;69163;48.778;2.308;2023-04-23T02:16:41;99998.94;;;17.34;35.50
62237;BME280;69163;48.778;2.308;2023-04-23T02:19:07;99999.85;;;17.36;35.45
62237;BME280;69163;48.778;2.308;2023-04-23T02:21:32;99996.56;;;17.54;35.50
62237;BME280;69163;48.778;2.308;2023-04-23T02:23:57;99998.96;;;17.54;35.46
62237;BME280;69163;48.778;2.308;2023-04-23T02:26:22;99998.90;;;17.68;35.57
62237;BME280;69163;48.778;2.308;2023-04-23T02:28:47;100003.08;;;17.88;35.35
62237;BME280;69163;48.778;2.308;2023-04-23T02:31:12;100004.85;;;17.71;35.24
62237;BME280;69163;48.778;2.308;2023-04-23T02:33:37;100000.16;;;17.30;35.38
62237;BME280;69163;48.778;2.308;2023-04-23T02:36:03;99998.30;;;17.51;35.39
62237;BME280;69163;48.778;2.308;2023-04-23T02:38:28;99995.21;;;17.27;35.35
62237;BME280;69163;48.778;2.308;2023-04-23T02:40:54;99994.42;;;17.63;35.23
62237;BME280;69163;48.778;2.308;2023-04-23T02:43:19;99990.43;;;17.59;35.24
62237;BME280;69163;48.778;2.308;2023-04-23T02:45:44;99989.46;;;17.61;35.20
62237;BME280;69163;48.778;2.308;2023-04-23T02:48:09;99987.16;;;17.81;35.20
62237;BME280;69163;48.778;2.308;2023-04-23T02:50:34;99983.03;;;17.53;35.24
62237;BME280;69163;48.778;2.308;2023-04-23T02:52:59;99979.08;;;17.61;35.12
62237;BME280;69163;48.778;2.308;2023-04-23T02:55:25;99979.65;;;17.52;35.19
62237;BME280;69163;48.778;2.308;2023-04-23T02:57:50;99974.01;;;17.39;35.05
62237;BME280;69163;48.778;2.308;2023-04-23T03:00:16;99976.57;;;17.69;34.95
62237;BME280;69163;48.778;2.308;2023-04-23T03:02:40;99976.77;;;17.95;34.96
62237;BME280;69163;48.778;2.308;2023-04-23T03:05:06;99975.79;;;17.68;34.92
62237;BME280;69163;48.778;2.308;2023-04-23T03:07:31;99976.47;;;17.54;34.79
62237;BME280;69163;48.778;2.308;2023-04-23T03:09:56;99975.04;;;17.83;34.71
62237;BME280;69163;48.778;2.308;2023-04-23T03:12:21;99968.08;;;17.69;34.77
62237;BME280;69163;48.778;2.308;2023-04-23T03:14:47;99965.62;;;17.66;34.84
62237;BME280;69163;48.778;2.308;2023-04-23T03:17:12;99962.24;;;17.41;34.80
62237;BME280;69163;48.778;2.308;2023-04-23T03:19:37;99956.93;;;17.32;34.88
62237;BME280;69163;48.778;2.308;2023-04-23T03:22:03;99950.45;;;17.63;34.80
62237;BME280;69163;48.778;2.308;2023-04-23T03:24:28;99951.49;;;17.67;34.71
62237;BME280;69163;48.778;2.308;2023-04-23T03:26:53;99954.48;;;17.91;34.67
62237;BME280;69163;48.778;2.308;2023-04-23T03:29:18;99950.40;;;18.00;34.57
62237;BME280;69163;48.778;2.308;2023-04-23T03:31:43;99952.22;;;17.98;34.58
62237;BME280;69163;48.778;2.308;2023-04-23T03:34:08;99953.25;;;17.71;34.59
62237;BME280;69163;48.778;2.308;2023-04-23T03:36:33;99953.60;;;17.38;34.68
62237;BME280;69163;48.778;2.308;2023-04-23T03:38:59;99953.72;;;17.78;34.49
62237;BME280;69163;48.778;2.308;2023-04-23T03:41:24;99955.82;;;17.40;34.59
62237;BME280;69163;48.778;2.308;2023-04-23T03:43:50;99954.42;;;17.74;34.48
62237;BME280;69163;48.778;2.308;2023-04-23T03:46:15;99952.25;;;17.68;34.27
62237;BME280;69163;48.778;2.308;2023-04-23T03:48:40;99953.86;;;17.69;34.46
62237;BME280;69163;48.778;2.308;2023-04-23T03:51:05;99947.53;;;17.81;34.32
62237;BME280;69163;48.778;2.308;2023-04-23T03:53:31;99938.55;;;18.03;34.33
62237;BME280;69163;48.778;2.308;2023-04-23T03:55:56;99934.55;;;18.08;34.25
62237;BME280;69163;48.778;2.308;2023-04-23T03:58:21;99937.98;;;18.07;34.25
62237;BME280;69163;48.778;2.308;2023-04-23T04:00:46;99937.30;;;17.80;34.26
62237;BME280;69163;48.778;2.308;2023-04-23T04:03:12;99944.60;;;18.05;34.22
62237;BME280;69163;48.778;2.308;2023-04-23T04:05:37;99951.87;;;17.72;34.31
62237;BME280;69163;48.778;2.308;2023-04-23T04:08:02;99948.01;;;17.76;34.24
62237;BME280;69163;48.778;2.308;2023-04-23T04:10:27;99931.70;;;17.98;34.24
62237;BME280;69163;48.778;2.308;2023-04-23T04:12:52;99925.52;;;18.07;34.13
62237;BME280;69163;48.778;2.308;2023-04-23T04:15:17;99924.46;;;17.78;34.15
62237;BME280;69163;48.778;2.308;2023-04-23T04:17:42;99924.06;;;17.88;34.05
62237;BME280;69163;48.778;2.308;2023-04-23T04:20:09;99920.62;;;17.53;34.12
62237;BME280;69163;48.778;2.308;2023-04-23T04:22:34;99916.69;;;17.72;34.18
62237;BME280;69163;48.778;2.308;2023-04-23T04:24:59;99919.00;;;18.11;34.00
62237;BME280;69163;48.778;2.308;2023-04-23T04:27:24;99926.43;;;17.63;33.97
62237;BME280;69163;48.778;2.308;2023-04-23T04:29:49;99927.08;;;17.61;33.99
62237;BME280;69163;48.778;2.308;2023-04-23T04:32:15;99922.51;;;18.10;33.95
62237;BME280;69163;48.778;2.308;2023-04-23T04:34:40;99920.49;;;17.58;33.92
62237;BME280;69163;48.778;2.308;2023-04-23T04:37:05;99916.04;;;17.63;33.89
62237;BME280;69163;48.778;2.308;2023-04-23T04:39:30;99916.41;;;18.08;33.87
62237;BME280;69163;48.778;2.308;2023-04-23T04:41:56;99914.27;;;17.89;34.05
62237;BME280;69163;48.778;2.308;2023-04-23T04:46:46;99902.22;;;18.09;33.87
62237;BME280;69163;48.778;2.308;2023-04-23T04:49:11;99900.82;;;17.99;33.69
62237;BME280;69163;48.778;2.308;2023-04-23T04:51:37;99896.21;;;17.71;33.70
62237;BME280;69163;48.778;2.308;2023-04-23T04:54:01;99893.31;;;17.76;33.84
62237;BME280;69163;48.778;2.308;2023-04-23T04:56:27;99888.56;;;17.77;33.84
62237;BME280;69163;48.778;2.308;2023-04-23T04:58:52;99886.34;;;17.79;33.83
62237;BME280;69163;48.778;2.308;2023-04-23T05:01:17;99892.58;;;17.84;33.76
62237;BME280;69163;48.778;2.308;2023-04-23T05:03:43;99892.91;;;17.78;33.81
62237;BME280;69163;48.778;2.308;2023-04-23T05:06:08;99891.65;;;18.11;33.73
62237;BME280;69163;48.778;2.308;2023-04-23T05:08:33;99888.57;;;17.73;33.83
62237;BME280;69163;48.778;2.308;2023-04-23T05:10:59;99891.59;;;17.83;33.71
62237;BME280;69163;48.778;2.308;2023-04-23T05:13:23;99889.72;;;17.65;33.65
62237;BME280;69163;48.778;2.308;2023-04-23T05:15:49;99891.90;;;18.15;33.62
62237;BME280;69163;48.778;2.308;2023-04-23T05:18:14;99887.25;;;17.76;33.75
62237;BME280;69163;48.778;2.308;2023-04-23T05:20:40;99887.66;;;17.78;33.72
62237;BME280;69163;48.778;2.308;2023-04-23T05:23:05;99888.86;;;18.08;33.65
62237;BME280;69163;48.778;2.308;2023-04-23T05:25:31;99888.62;;;18.06;33.67
62237;BME280;69163;48.778;2.308;2023-04-23T05:27:54;99887.42;;;18.07;33.65
62237;BME280;69163;48.778;2.308;2023-04-23T05:30:20;99888.68;;;18.08;33.60
62237;BME280;69163;48.778;2.308;2023-04-23T05:32:45;99887.73;;;18.11;33.58
62237;BME280;69163;48.778;2.308;2023-04-23T05:35:10;99882.64;;;17.83;33.59
62237;BME280;69163;48.778;2.308;2023-04-23T05:37:36;99878.44;;;17.62;33.56
62237;BME280;69163;48.778;2.308;2023-04-23T05:40:01;99874.03;;;17.78;33.40
62237;BME280;69163;48.778;2.308;2023-04-23T05:42:27;99871.67;;;18.18;33.44
62237;BME280;69163;48.778;2.308;2023-04-23T05:44:52;99872.39;;;17.95;33.43
62237;BME280;69163;48.778;2.308;2023-04-23T05:47:17;99872.82;;;18.28;33.34
62237;BME280;69163;48.778;2.308;2023-04-23T05:49:42;99868.41;;;18.23;33.36
62237;BME280;69163;48.778;2.308;2023-04-23T05:52:07;99866.19;;;17.85;33.50
62237;BME280;69163;48.778;2.308;2023-04-23T05:54:32;99868.73;;;17.90;33.46
62237;BME280;69163;48.778;2.308;2023-04-23T05:56:57;99866.88;;;17.93;33.41
62237;BME280;69163;48.778;2.308;2023-04-23T05:59:23;99868.62;;;17.81;33.51
62237;BME280;69163;48.778;2.308;2023-04-23T06:01:49;99872.41;;;17.68;33.62
62237;BME280;69163;48.778;2.308;2023-04-23T06:04:14;99869.57;;;17.80;33.52
62237;BME280;69163;48.778;2.308;2023-04-23T06:06:39;99867.26;;;17.81;33.49
62237;BME280;69163;48.778;2.308;2023-04-23T06:09:04;99865.83;;;18.04;33.50
62237;BME280;69163;48.778;2.308;2023-04-23T06:11:30;99864.98;;;17.85;33.46
62237;BME280;69163;48.778;2.308;2023-04-23T06:13:54;99870.87;;;18.04;33.48
62237;BME280;69163;48.778;2.308;2023-04-23T06:16:19;99871.54;;;17.98;33.53
62237;BME280;69163;48.778;2.308;2023-04-23T06:18:44;99873.91;;;17.87;33.42
62237;BME280;69163;48.778;2.308;2023-04-23T06:21:10;99870.89;;;17.80;33.47
62237;BME280;69163;48.778;2.308;2023-04-23T06:23:36;99870.79;;;17.70;33.32
62237;BME280;69163;48.778;2.308;2023-04-23T06:26:01;99867.38;;;17.90;33.34
62237;BME280;69163;48.778;2.308;2023-04-23T06:28:26;99860.29;;;17.95;33.30
62237;BME280;69163;48.778;2.308;2023-04-23T06:30:51;99861.68;;;18.37;33.34
62237;BME280;69163;48.778;2.308;2023-04-23T06:33:16;99856.88;;;18.16;33.32
62237;BME280;69163;48.778;2.308;2023-04-23T06:35:41;99848.99;;;17.88;33.35
62237;BME280;69163;48.778;2.308;2023-04-23T06:38:07;99849.54;;;17.55;33.43
62237;BME280;69163;48.778;2.308;2023-04-23T06:40:33;99851.30;;;17.76;33.46
62237;BME280;69163;48.778;2.308;2023-04-23T06:42:57;99851.71;;;17.85;33.40
62237;BME280;69163;48.778;2.308;2023-04-23T06:45:23;99846.16;;;17.76;33.46
62237;BME280;69163;48.778;2.308;2023-04-23T06:47:48;99842.13;;;18.05;33.42
62237;BME280;69163;48.778;2.308;2023-04-23T06:50:12;99841.66;;;18.08;33.39
62237;BME280;69163;48.778;2.308;2023-04-23T06:52:38;99839.62;;;17.86;33.35
62237;BME280;69163;48.778;2.308;2023-04-23T06:55:04;99837.64;;;17.80;33.41
62237;BME280;69163;48.778;2.308;2023-04-23T06:57:29;99840.27;;;17.81;33.41
62237;BME280;69163;48.778;2.308;2023-04-23T06:59:54;99844.44;;;17.77;33.45
62237;BME280;69163;48.778;2.308;2023-04-23T07:02:19;99847.88;;;17.83;33.37
62237;BME280;69163;48.778;2.308;2023-04-23T07:04:44;99827.78;;;17.79;33.42
62237;BME280;69163;48.778;2.308;2023-04-23T07:07:10;99832.43;;;18.15;33.31
62237;BME280;69163;48.778;2.308;2023-04-23T07:09:34;99828.42;;;18.03;33.42
62237;BME280;69163;48.778;2.308;2023-04-23T07:12:00;99828.35;;;17.76;33.45
62237;BME280;69163;48.778;2.308;2023-04-23T07:14:25;99825.74;;;17.85;33.40
62237;BME280;69163;48.778;2.308;2023-04-23T07:16:51;99824.14;;;17.80;33.44
62237;BME280;69163;48.778;2.308;2023-04-23T07:19:16;99820.46;;;17.89;33.35
62237;BME280;69163;48.778;2.308;2023-04-23T07:21:41;99817.50;;;18.20;33.26
62237;BME280;69163;48.778;2.308;2023-04-23T07:24:07;99813.64;;;18.13;33.33
62237;BME280;69163;48.778;2.308;2023-04-23T07:26:32;99810.86;;;18.01;33.22
62237;BME280;69163;48.778;2.308;2023-04-23T07:28:56;99809.95;;;17.95;33.27
62237;BME280;69163;48.778;2.308;2023-04-23T07:31:22;99801.30;;;17.85;33.34
62237;BME280;69163;48.778;2.308;2023-04-23T07:33:47;99799.12;;;17.63;33.34
62237;BME280;69163;48.778;2.308;2023-04-23T07:36:13;99788.27;;;17.59;33.39
62237;BME280;69163;48.778;2.308;2023-04-23T07:38:38;99794.59;;;17.92;33.31
62237;BME280;69163;48.778;2.308;2023-04-23T07:41:03;99802.19;;;17.88;33.35
62237;BME280;69163;48.778;2.308;2023-04-23T07:43:28;99801.30;;;18.17;33.29
62237;BME280;69163;48.778;2.308;2023-04-23T07:45:53;99800.40;;;17.68;33.31
62237;BME280;69163;48.778;2.308;2023-04-23T07:48:18;99812.53;;;17.64;33.35
62237;BME280;69163;48.778;2.308;2023-04-23T07:50:43;99807.85;;;17.96;33.28
62237;BME280;69163;48.778;2.308;2023-04-23T07:53:09;99802.40;;;17.84;33.41
62237;BME280;69163;48.778;2.308;2023-04-23T07:55:35;99790.01;;;18.06;33.43
62237;BME280;69163;48.778;2.308;2023-04-23T07:58:00;99776.41;;;18.17;33.34
62237;BME280;69163;48.778;2.308;2023-04-23T08:00:25;99757.73;;;17.97;33.27
62237;BME280;69163;48.778;2.308;2023-04-23T08:02:52;99750.07;;;18.22;33.26
62237;BME280;69163;48.778;2.308;2023-04-23T08:05:15;99754.41;;;18.15;33.34
62237;BME280;69163;48.778;2.308;2023-04-23T08:07:40;99758.23;;;17.67;33.35
62237;BME280;69163;48.778;2.308;2023-04-23T08:10:07;99754.71;;;18.01;33.27
62237;BME280;69163;48.778;2.308;2023-04-23T08:12:32;99749.38;;;18.22;33.28
62237;BME280;69163;48.778;2.308;2023-04-23T08:14:56;99739.20;;;17.73;33.28
62237;BME280;69163;48.778;2.308;2023-04-23T08:17:22;99723.46;;;17.88;33.37
62237;BME280;69163;48.778;2.308;2023-04-23T08:19:47;99712.24;;;17.94;33.32
62237;BME280;69163;48.778;2.308;2023-04-23T08:22:12;99707.14;;;17.90;33.38
62237;BME280;69163;48.778;2.308;2023-04-23T08:24:38;99694.79;;;18.20;33.32
62237;BME280;69163;48.778;2.308;2023-04-23T08:27:02;99683.89;;;17.99;33.30
62237;BME280;69163;48.778;2.308;2023-04-23T08:29:27;99675.90;;;17.94;33.32
62237;BME280;69163;48.778;2.308;2023-04-23T08:31:53;99679.66;;;17.96;33.35
62237;BME280;69163;48.778;2.308;2023-04-23T08:34:18;99688.52;;;17.97;33.34
62237;BME280;69163;48.778;2.308;2023-04-23T08:36:44;99690.93;;;17.96;33.36
62237;BME280;69163;48.778;2.308;2023-04-23T08:39:09;99669.64;;;18.16;33.39
62237;BME280;69163;48.778;2.308;2023-04-23T08:41:39;99663.48;;;18.21;33.34
62237;BME280;69163;48.778;2.308;2023-04-23T08:44:04;99657.48;;;18.18;33.39
62237;BME280;69163;48.778;2.308;2023-04-23T08:46:24;99652.08;;;17.95;33.39
62237;BME280;69163;48.778;2.308;2023-04-23T08:48:51;99637.46;;;17.98;33.35
62237;BME280;69163;48.778;2.308;2023-04-23T08:51:17;99629.77;;;18.04;33.29
62237;BME280;69163;48.778;2.308;2023-04-23T08:53:43;99624.15;;;17.95;33.37
62237;BME280;69163;48.778;2.308;2023-04-23T08:56:06;99621.73;;;17.96;33.39
62237;BME280;69163;48.778;2.308;2023-04-23T08:58:31;99618.52;;;17.98;33.38
62237;BME280;69163;48.778;2.308;2023-04-23T09:00:57;99613.19;;;18.23;33.36
62237;BME280;69163;48.778;2.308;2023-04-23T09:03:22;99613.89;;;18.19;33.41
62237;BME280;69163;48.778;2.308;2023-04-23T09:05:46;99604.24;;;18.24;33.37
62237;BME280;69163;48.778;2.308;2023-04-23T09:08:11;99590.14;;;17.98;33.39
62237;BME280;69163;48.778;2.308;2023-04-23T09:10:39;99580.67;;;17.92;33.43
62237;BME280;69163;48.778;2.308;2023-04-23T09:13:02;99575.68;;;18.21;33.43
62237;BME280;69163;48.778;2.308;2023-04-23T09:15:27;99575.47;;;18.25;33.39
62237;BME280;69163;48.778;2.308;2023-04-23T09:17:52;99566.88;;;18.00;33.38
62237;BME280;69163;48.778;2.308;2023-04-23T09:20:17;99557.28;;;18.29;33.34
62237;BME280;69163;48.778;2.308;2023-04-23T09:22:45;99552.18;;;18.08;33.31
62237;BME280;69163;48.778;2.308;2023-04-23T09:25:09;99541.72;;;17.99;33.40
62237;BME280;69163;48.778;2.308;2023-04-23T09:27:34;99540.97;;;17.96;33.43
62237;BME280;69163;48.778;2.308;2023-04-23T09:30:00;99539.98;;;17.94;33.47
62237;BME280;69163;48.778;2.308;2023-04-23T09:32:30;99538.35;;;18.09;33.69
62237;BME280;69163;48.778;2.308;2023-04-23T09:34:55;99532.92;;;18.12;35.61
62237;BME280;69163;48.778;2.308;2023-04-23T09:37:17;99528.54;;;18.20;36.14
62237;BME280;69163;48.778;2.308;2023-04-23T09:39:39;99531.26;;;18.28;36.52
62237;BME280;69163;48.778;2.308;2023-04-23T09:42:05;99528.53;;;17.68;36.93
62237;BME280;69163;48.778;2.308;2023-04-23T09:44:31;99522.98;;;18.12;36.84
62237;BME280;69163;48.778;2.308;2023-04-23T09:46:55;99519.22;;;18.12;36.97
62237;BME280;69163;48.778;2.308;2023-04-23T09:49:20;99515.99;;;18.11;37.24
62237;BME280;69163;48.778;2.308;2023-04-23T09:51:47;99525.79;;;17.82;37.32
62237;BME280;69163;48.778;2.308;2023-04-23T09:54:12;99527.01;;;18.00;37.46
62237;BME280;69163;48.778;2.308;2023-04-23T09:56:36;99519.79;;;17.69;37.57
62237;BME280;69163;48.778;2.308;2023-04-23T09:59:01;99503.92;;;18.25;37.44
62237;BME280;69163;48.778;2.308;2023-04-23T10:01:28;99503.70;;;18.21;37.51
62237;BME280;69163;48.778;2.308;2023-04-23T10:03:52;99493.28;;;17.87;37.46
62237;BME280;69163;48.778;2.308;2023-04-23T10:06:17;99486.50;;;17.98;37.59
62237;BME280;69163;48.778;2.308;2023-04-23T10:08:43;99483.99;;;18.36;37.52
62237;BME280;69163;48.778;2.308;2023-04-23T10:11:07;99475.86;;;18.19;37.52
62237;BME280;69163;48.778;2.308;2023-04-23T10:13:33;99477.66;;;18.33;37.34
62237;BME280;69163;48.778;2.308;2023-04-23T10:15:59;99478.22;;;18.37;37.30
62237;BME280;69163;48.778;2.308;2023-04-23T10:18:24;99473.64;;;18.47;37.20
62237;BME280;69163;48.778;2.308;2023-04-23T10:20:50;99459.08;;;18.82;37.09
62237;BME280;69163;48.778;2.308;2023-04-23T10:23:14;99450.86;;;19.00;37.15
62237;BME280;69163;48.778;2.308;2023-04-23T10:25:39;99439.52;;;18.71;37.28
62237;BME280;69163;48.778;2.308;2023-04-23T10:28:05;99430.40;;;18.40;37.36
62237;BME280;69163;48.778;2.308;2023-04-23T10:30:30;99426.83;;;18.38;37.40
62237;BME280;69163;48.778;2.308;2023-04-23T10:32:56;99427.28;;;18.28;37.56
62237;BME280;69163;48.778;2.308;2023-04-23T10:35:20;99429.59;;;18.57;37.55
62237;BME280;69163;48.778;2.308;2023-04-23T10:37:46;99418.58;;;18.96;37.71
62237;BME280;69163;48.778;2.308;2023-04-23T10:40:12;99413.19;;;18.49;37.69
62237;BME280;69163;48.778;2.308;2023-04-23T10:42:36;99406.26;;;17.88;37.79
62237;BME280;69163;48.778;2.308;2023-04-23T10:45:01;99400.16;;;18.29;37.88
62237;BME280;69163;48.778;2.308;2023-04-23T10:47:26;99392.20;;;18.25;37.83
62237;BME280;69163;48.778;2.308;2023-04-23T10:49:51;99389.41;;;18.43;37.62
62237;BME280;69163;48.778;2.308;2023-04-23T10:52:17;99384.61;;;18.53;37.71
62237;BME280;69163;48.778;2.308;2023-04-23T10:54:42;99371.44;;;17.97;37.78
62237;BME280;69163;48.778;2.308;2023-04-23T10:57:07;99373.49;;;17.99;37.74
62237;BME280;69163;48.778;2.308;2023-04-23T10:59:33;99365.98;;;18.13;37.78
62237;BME280;69163;48.778;2.308;2023-04-23T11:02:05;99358.29;;;18.18;37.67
62237;BME280;69163;48.778;2.308;2023-04-23T11:04:24;99352.51;;;18.20;37.61
62237;BME280;69163;48.778;2.308;2023-04-23T11:06:53;99341.17;;;18.17;37.57
62237;BME280;69163;48.778;2.308;2023-04-23T11:09:27;99337.59;;;18.16;37.51
62237;BME280;69163;48.778;2.308;2023-04-23T11:11:39;99336.20;;;18.15;37.46
62237;BME280;69163;48.778;2.308;2023-04-23T11:14:11;99326.75;;;18.12;37.49
62237;BME280;69163;48.778;2.308;2023-04-23T11:16:30;99325.89;;;18.13;37.45
62237;BME280;69163;48.778;2.308;2023-04-23T11:18:55;99323.85;;;17.94;37.35
62237;BME280;69163;48.778;2.308;2023-04-23T11:21:19;99315.82;;;18.17;37.27
62237;BME280;69163;48.778;2.308;2023-04-23T11:23:45;99310.89;;;18.19;37.17
62237;BME280;69163;48.778;2.308;2023-04-23T11:26:10;99301.39;;;18.15;37.21
62237;BME280;69163;48.778;2.308;2023-04-23T11:28:36;99293.15;;;18.18;37.16
62237;BME280;69163;48.778;2.308;2023-04-23T11:31:01;99289.76;;;18.15;37.11
62237;BME280;69163;48.778;2.308;2023-04-23T11:33:25;99279.32;;;18.11;37.11
62237;BME280;69163;48.778;2.308;2023-04-23T11:35:51;99278.88;;;18.11;37.12
62237;BME280;69163;48.778;2.308;2023-04-23T11:38:16;99276.11;;;18.18;37.00
62237;BME280;69163;48.778;2.308;2023-04-23T11:40:41;99280.94;;;18.27;37.18
62237;BME280;69163;48.778;2.308;2023-04-23T11:43:07;99290.05;;;18.34;37.73
62237;BME280;69163;48.778;2.308;2023-04-23T11:45:32;99285.69;;;18.58;38.74
62237;BME280;69163;48.778;2.308;2023-04-23T11:47:58;99295.20;;;18.26;38.91
62237;BME280;69163;48.778;2.308;2023-04-23T11:50:24;99281.27;;;18.24;39.32
62237;BME280;69163;48.778;2.308;2023-04-23T11:52:47;99296.51;;;17.96;39.87
62237;BME280;69163;48.778;2.308;2023-04-23T11:55:13;99294.10;;;17.80;40.46
62237;BME280;69163;48.778;2.308;2023-04-23T11:57:42;99300.28;;;17.80;40.31
62237;BME280;69163;48.778;2.308;2023-04-23T12:00:10;99300.53;;;17.57;40.39
62237;BME280;69163;48.778;2.308;2023-04-23T12:02:28;99295.66;;;17.96;41.01
62237;BME280;69163;48.778;2.308;2023-04-23T12:04:53;99305.73;;;18.34;40.80
62237;BME280;69163;48.778;2.308;2023-04-23T12:07:18;99314.68;;;18.01;40.38
62237;BME280;69163;48.778;2.308;2023-04-23T12:09:45;99313.31;;;17.96;40.50
62237;BME280;69163;48.778;2.308;2023-04-23T12:12:09;99318.24;;;18.03;40.41
62237;BME280;69163;48.778;2.308;2023-04-23T12:14:35;99318.24;;;18.37;40.24
62237;BME280;69163;48.778;2.308;2023-04-23T12:17:09;99317.68;;;18.28;40.54
62237;BME280;69163;48.778;2.308;2023-04-23T12:19:28;99312.45;;;18.39;40.41
62237;BME280;69163;48.778;2.308;2023-04-23T12:21:51;99320.71;;;18.45;40.35
62237;BME280;69163;48.778;2.308;2023-04-23T12:24:16;99317.31;;;18.67;40.37
62237;BME280;69163;48.778;2.308;2023-04-23T12:26:41;99325.60;;;18.64;40.08
62237;BME280;69163;48.778;2.308;2023-04-23T12:29:07;99325.67;;;18.24;40.12
62237;BME280;69163;48.778;2.308;2023-04-23T12:31:32;99324.30;;;18.42;40.42
62237;BME280;69163;48.778;2.308;2023-04-23T12:33:57;99324.90;;;18.51;40.46
62237;BME280;69163;48.778;2.308;2023-04-23T12:36:26;99320.81;;;18.31;40.40
62237;BME280;69163;48.778;2.308;2023-04-23T12:38:47;99325.68;;;18.59;40.01
62237;BME280;69163;48.778;2.308;2023-04-23T12:41:12;99331.04;;;18.49;39.99
62237;BME280;69163;48.778;2.308;2023-04-23T12:43:37;99333.27;;;18.34;40.05
62237;BME280;69163;48.778;2.308;2023-04-23T12:46:03;99326.91;;;18.36;40.16
62237;BME280;69163;48.778;2.308;2023-04-23T12:48:28;99327.20;;;18.60;40.26
62237;BME280;69163;48.778;2.308;2023-04-23T12:50:54;99320.28;;;18.62;40.07